Time;durP1;ratioP1;P1;durP2;ratioP2;P2;SDS_P1;SDS_P2;PMS_P1;PMS_P2;Temp;Humidity;BMP_temperature;BMP_pressure;BME280_temperature;BME280_humidity;BME280_pressure;Samples;Min_cycle;Max_cycle;Signal;HPM_P1;HPM_P2
2024/02/01 00:00:36;;;;;;;21.90;20.07;;;7.00;99.90;;;;;;5094224;28;20495;-77
2024/02/01 00:03:04;;;;;;;22.83;20.83;;;7.00;99.90;;;;;;5094696;28;20903;-77
2024/02/01 00:05:33;;;;;;;22.60;20.70;;;6.90;99.90;;;;;;5094916;28;20957;-77
2024/02/01 00:08:01;;;;;;;22.37;20.67;;;6.90;99.90;;;;;;5096499;28;20451;-76
2024/02/01 00:10:29;;;;;;;23.47;21.37;;;6.90;99.90;;;;;;5096505;28;20534;-77
2024/02/01 00:12:59;;;;;;;23.00;20.90;;;6.90;99.90;;;;;;5097534;28;20453;-76
2024/02/01 00:15:28;;;;;;;23.73;21.83;;;6.90;99.90;;;;;;5097327;28;20531;-77
2024/02/01 00:17:56;;;;;;;24.17;22.27;;;6.90;99.90;;;;;;5096045;28;20446;-75
2024/02/01 00:20:25;;;;;;;25.27;22.90;;;6.80;99.90;;;;;;5096573;28;20506;-77
2024/02/01 00:22:53;;;;;;;23.80;21.80;;;6.80;99.90;;;;;;5097794;28;20450;-77
2024/02/01 00:25:21;;;;;;;23.43;21.50;;;6.90;99.90;;;;;;5097888;28;20855;-77
2024/02/01 00:27:49;;;;;;;23.50;21.37;;;6.80;99.90;;;;;;5097080;28;20435;-75
2024/02/01 00:30:20;;;;;;;24.97;22.97;;;6.90;99.90;;;;;;5095780;28;20540;-77
2024/02/01 00:32:49;;;;;;;24.37;22.37;;;6.80;99.90;;;;;;5097281;28;20415;-75
2024/02/01 00:35:17;;;;;;;24.40;22.40;;;6.80;99.90;;;;;;5096650;28;20445;-75
2024/02/01 00:37:45;;;;;;;24.50;22.50;;;6.80;99.90;;;;;;5095567;28;20534;-77
2024/02/01 00:40:14;;;;;;;26.10;23.97;;;6.80;99.90;;;;;;5096316;28;20466;-78
2024/02/01 00:42:43;;;;;;;24.73;22.73;;;6.80;99.90;;;;;;5096109;28;20450;-76
2024/02/01 00:45:11;;;;;;;26.73;24.33;;;6.80;99.90;;;;;;5095308;28;20443;-77
2024/02/01 00:47:41;;;;;;;24.43;22.47;;;6.80;99.90;;;;;;5095115;28;20478;-75
2024/02/01 00:50:09;;;;;;;25.67;23.57;;;6.80;99.90;;;;;;5097175;28;20830;-77
2024/02/01 00:52:38;;;;;;;24.00;22.00;;;6.80;99.90;;;;;;5095315;28;20447;-78
2024/02/01 00:55:08;;;;;;;24.93;22.83;;;6.80;99.90;;;;;;5096637;28;20446;-77
2024/02/01 00:57:36;;;;;;;24.30;22.47;;;6.80;99.90;;;;;;5096595;28;20950;-77
2024/02/01 01:00:06;;;;;;;25.33;23.23;;;6.80;99.90;;;;;;5096363;28;20472;-77
2024/02/01 01:02:34;;;;;;;25.57;23.57;;;6.80;99.90;;;;;;5096214;28;20439;-77
2024/02/01 01:05:04;;;;;;;25.50;23.40;;;6.80;99.90;;;;;;5095229;28;20550;-77
2024/02/01 01:07:33;;;;;;;25.60;23.43;;;6.80;99.90;;;;;;5096002;28;20431;-76
2024/02/01 01:10:01;;;;;;;25.83;23.77;;;6.80;99.90;;;;;;5094730;28;20557;-76
2024/02/01 01:12:30;;;;;;;27.10;24.63;;;6.90;99.90;;;;;;5096335;28;20446;-77
2024/02/01 01:14:58;;;;;;;27.20;24.83;;;6.90;99.90;;;;;;5094662;28;20990;-77
2024/02/01 01:17:27;;;;;;;26.70;24.50;;;6.90;99.90;;;;;;5094356;28;20853;-77
2024/02/01 01:20:02;;;;;;;29.03;26.10;;;6.90;99.90;;;;;;5095800;28;20462;-77
2024/02/01 01:22:32;;;;;;;27.73;25.13;;;6.90;99.90;;;;;;5096051;28;20848;-76
2024/02/01 01:25:01;;;;;;;26.50;24.30;;;6.90;99.90;;;;;;5095743;28;20477;-77
2024/02/01 01:27:29;;;;;;;27.07;24.70;;;6.90;99.90;;;;;;5094490;28;20484;-77
2024/02/01 01:29:57;;;;;;;26.43;24.27;;;6.90;99.90;;;;;;5095661;28;20936;-77
2024/02/01 01:32:25;;;;;;;26.93;24.73;;;6.90;99.90;;;;;;5094818;28;21011;-77
2024/02/01 01:34:53;;;;;;;27.43;25.13;;;6.90;99.90;;;;;;5095213;28;20894;-77
2024/02/01 01:37:22;;;;;;;27.30;25.00;;;6.90;99.90;;;;;;5094466;28;20447;-77
2024/02/01 01:39:52;;;;;;;25.83;23.80;;;7.00;99.90;;;;;;5096037;28;20468;-77
2024/02/01 01:42:20;;;;;;;25.50;23.40;;;7.00;99.90;;;;;;5095473;28;20431;-77
2024/02/01 01:44:48;;;;;;;26.10;23.90;;;7.00;99.90;;;;;;5094069;28;20475;-77
2024/02/01 01:47:17;;;;;;;27.50;25.13;;;7.00;99.90;;;;;;5095523;28;20541;-77
2024/02/01 01:49:45;;;;;;;25.63;23.50;;;7.00;99.90;;;;;;5093978;28;20504;-77
2024/02/01 01:52:14;;;;;;;26.53;24.13;;;7.00;99.90;;;;;;5094655;28;20452;-77
2024/02/01 01:54:43;;;;;;;27.03;24.83;;;7.00;99.90;;;;;;5095379;28;20920;-77
2024/02/01 01:57:13;;;;;;;26.57;24.30;;;7.00;99.90;;;;;;5096295;28;20862;-77
2024/02/01 01:59:41;;;;;;;25.37;23.37;;;7.10;99.90;;;;;;5095284;28;20493;-77
2024/02/01 02:02:10;;;;;;;24.97;23.00;;;7.10;99.90;;;;;;5096416;28;20940;-77
2024/02/01 02:04:38;;;;;;;25.40;23.30;;;7.10;99.90;;;;;;5094006;28;20474;-76
2024/02/01 02:07:06;;;;;;;25.33;23.20;;;7.10;99.90;;;;;;5096558;28;20432;-77
2024/02/01 02:09:35;;;;;;;25.60;23.60;;;7.10;99.90;;;;;;5094985;28;20496;-76
2024/02/01 02:12:04;;;;;;;26.03;23.90;;;7.10;99.90;;;;;;5095192;28;20982;-77
2024/02/01 02:14:33;;;;;;;24.10;22.07;;;7.20;99.90;;;;;;5093747;28;20456;-77
2024/02/01 02:17:02;;;;;;;23.50;21.17;;;7.20;99.90;;;;;;5095487;28;20471;-77
2024/02/01 02:19:30;;;;;;;22.40;20.70;;;7.20;99.90;;;;;;5094423;28;20452;-76
2024/02/01 02:22:00;;;;;;;21.63;19.73;;;7.20;99.90;;;;;;5095442;28;20471;-77
2024/02/01 02:24:30;;;;;;;20.97;19.17;;;7.20;99.90;;;;;;5094983;28;20985;-77
2024/02/01 02:26:58;;;;;;;20.57;18.67;;;7.20;99.90;;;;;;5095428;28;20459;-77
2024/02/01 02:29:27;;;;;;;20.33;18.63;;;7.20;99.90;;;;;;5093559;28;20458;-76
2024/02/01 02:31:55;;;;;;;21.57;19.70;;;7.30;99.90;;;;;;5093754;28;21038;-77
2024/02/01 02:34:23;;;;;;;21.63;19.73;;;7.20;99.90;;;;;;5094251;28;20524;-77
2024/02/01 02:36:51;;;;;;;20.90;19.20;;;7.30;99.90;;;;;;5094824;28;20487;-76
2024/02/01 02:39:21;;;;;;;22.60;20.60;;;7.30;99.90;;;;;;5093097;28;20448;-76
2024/02/01 02:41:50;;;;;;;21.70;19.80;;;7.30;99.90;;;;;;5094829;28;20478;-77
2024/02/01 02:44:18;;;;;;;21.90;19.90;;;7.30;99.90;;;;;;5094249;28;20476;-77
2024/02/01 02:46:46;;;;;;;21.07;19.07;;;7.40;99.90;;;;;;5094742;28;20865;-76
2024/02/01 02:49:15;;;;;;;22.13;19.90;;;7.40;99.90;;;;;;5092928;28;20466;-76
2024/02/01 02:51:43;;;;;;;22.10;19.80;;;7.40;99.90;;;;;;5092914;28;20441;-77
2024/02/01 02:54:11;;;;;;;22.53;20.00;;;7.40;99.90;;;;;;5092826;28;20500;-77
2024/02/01 02:56:41;;;;;;;22.10;19.90;;;7.40;99.90;;;;;;5094031;28;20435;-77
2024/02/01 02:59:10;;;;;;;20.77;18.80;;;7.50;99.90;;;;;;5094403;28;20431;-77
2024/02/01 03:01:39;;;;;;;20.20;18.20;;;7.50;99.90;;;;;;5093342;28;20471;-77
2024/02/01 03:04:08;;;;;;;21.43;19.10;;;7.60;99.90;;;;;;5094184;28;20501;-77
2024/02/01 03:06:37;;;;;;;20.10;18.03;;;7.60;99.90;;;;;;5094436;28;20455;-77
2024/02/01 03:09:09;;;;;;;20.30;18.40;;;7.60;99.90;;;;;;5092805;28;20955;-77
2024/02/01 03:11:38;;;;;;;21.23;19.20;;;7.60;99.90;;;;;;5092960;28;20478;-77
2024/02/01 03:14:11;;;;;;;19.93;17.50;;;7.60;99.90;;;;;;5092980;28;20479;-76
2024/02/01 03:16:39;;;;;;;21.17;16.97;;;7.70;99.90;;;;;;5094072;28;20417;-76
2024/02/01 03:19:11;;;;;;;18.80;16.80;;;7.70;99.90;;;;;;5092647;28;20545;-76
2024/02/01 03:21:40;;;;;;;19.47;17.43;;;7.70;99.90;;;;;;5092596;28;20464;-75
2024/02/01 03:24:08;;;;;;;18.73;16.67;;;7.70;99.90;;;;;;5093014;28;20479;-78
2024/02/01 03:26:37;;;;;;;20.93;16.37;;;7.70;99.90;;;;;;5092991;28;20535;-76
2024/02/01 03:29:07;;;;;;;18.87;15.40;;;7.70;99.90;;;;;;5092496;28;20444;-76
2024/02/01 03:31:35;;;;;;;20.90;15.50;;;7.70;99.90;;;;;;5092748;28;20459;-76
2024/02/01 03:34:10;;;;;;;19.67;14.97;;;7.80;99.90;;;;;;5092169;28;20471;-75
2024/02/01 03:36:39;;;;;;;18.27;13.00;;;7.70;99.90;;;;;;5094584;28;20412;-77
2024/02/01 03:39:22;;;;;;;20.13;12.90;;;7.70;99.90;;;;;;5092532;28;20498;-76
2024/02/01 03:41:51;;;;;;;19.47;11.80;;;7.70;99.90;;;;;;5094681;28;20451;-77
2024/02/01 03:44:21;;;;;;;21.07;11.00;;;7.70;99.90;;;;;;5092513;28;20847;-77
2024/02/01 03:46:51;;;;;;;15.63;10.10;;;7.70;99.90;;;;;;5092738;28;20592;-77
2024/02/01 03:49:20;;;;;;;19.37;9.70;;;7.70;99.90;;;;;;5092663;28;20448;-77
2024/02/01 03:51:49;;;;;;;15.77;9.27;;;7.70;99.90;;;;;;5092836;28;20550;-77
2024/02/01 03:54:17;;;;;;;17.40;9.27;;;7.70;99.90;;;;;;5092386;28;20571;-76
2024/02/01 03:56:46;;;;;;;17.93;9.03;;;7.70;99.90;;;;;;5093470;28;20492;-77
2024/02/01 03:59:14;;;;;;;14.33;7.83;;;7.60;99.90;;;;;;5093792;28;20436;-77
2024/02/01 04:01:44;;;;;;;14.20;7.97;;;7.60;99.90;;;;;;5094045;28;20459;-77
2024/02/01 04:04:17;;;;;;;18.13;7.50;;;7.60;99.90;;;;;;5093751;28;20463;-77
2024/02/01 04:06:51;;;;;;;17.37;7.40;;;7.60;99.90;;;;;;5094644;28;20431;-77
2024/02/01 04:09:20;;;;;;;14.47;7.17;;;7.50;99.90;;;;;;5095743;28;20444;-76
2024/02/01 04:11:49;;;;;;;17.67;7.47;;;7.50;99.90;;;;;;5094228;28;20435;-75
2024/02/01 04:14:17;;;;;;;15.77;6.60;;;7.50;99.90;;;;;;5094220;28;20831;-77
2024/02/01 04:16:47;;;;;;;17.87;7.87;;;7.50;99.90;;;;;;5092947;28;20455;-76
2024/02/01 04:19:15;;;;;;;21.33;8.07;;;7.50;99.90;;;;;;5092221;28;20910;-77
2024/02/01 04:21:46;;;;;;;18.80;7.23;;;7.40;99.90;;;;;;5092148;28;20478;-76
2024/02/01 04:24:16;;;;;;;17.63;6.57;;;7.40;99.90;;;;;;5092130;28;20521;-76
2024/02/01 04:26:45;;;;;;;22.43;7.87;;;7.40;99.90;;;;;;5093264;28;20420;-77
2024/02/01 04:29:13;;;;;;;25.60;7.87;;;7.30;99.90;;;;;;5092225;28;20466;-76
2024/02/01 04:31:42;;;;;;;15.80;6.53;;;7.30;99.90;;;;;;5091803;28;20475;-76
2024/02/01 04:34:12;;;;;;;23.83;7.50;;;7.30;99.90;;;;;;5093198;28;20458;-76
2024/02/01 04:36:44;;;;;;;16.00;6.77;;;7.30;99.90;;;;;;5093027;28;20481;-76
2024/02/01 04:39:13;;;;;;;17.50;6.77;;;7.20;99.90;;;;;;5093289;28;20888;-77
2024/02/01 04:41:43;;;;;;;21.63;6.20;;;7.20;99.90;;;;;;5091799;28;20992;-76
2024/02/01 04:44:11;;;;;;;24.70;7.47;;;7.20;99.90;;;;;;5092888;28;20454;-76
2024/02/01 04:46:40;;;;;;;22.83;7.83;;;7.20;99.90;;;;;;5091714;28;20824;-77
2024/02/01 04:49:12;;;;;;;23.57;8.00;;;7.10;99.90;;;;;;5091583;28;20861;-76
2024/02/01 04:51:43;;;;;;;22.10;7.30;;;7.10;99.90;;;;;;5093435;28;20425;-76
2024/02/01 04:54:11;;;;;;;19.73;7.10;;;7.10;99.90;;;;;;5096523;28;20494;-76
2024/02/01 04:56:40;;;;;;;20.63;8.00;;;7.00;99.90;;;;;;5095269;28;20451;-76
2024/02/01 04:59:08;;;;;;;19.63;6.70;;;7.00;99.90;;;;;;5095119;28;20446;-76
2024/02/01 05:01:37;;;;;;;23.13;7.40;;;7.00;99.90;;;;;;5096540;28;20475;-76
2024/02/01 05:04:13;;;;;;;19.13;6.97;;;6.90;99.90;;;;;;5085111;22;21073;-75
2024/02/01 05:06:43;;;;;;;23.40;6.33;;;6.90;99.90;;;;;;5034764;28;20544;-75
2024/02/01 05:09:25;;;;;;;25.03;7.67;;;6.90;99.90;;;;;;5034640;28;20444;-75
2024/02/01 05:11:54;;;;;;;27.87;7.07;;;6.90;99.90;;;;;;5034594;28;20949;-75
2024/02/01 05:14:23;;;;;;;25.23;7.43;;;6.80;99.90;;;;;;5035708;28;20975;-75
2024/02/01 05:16:52;;;;;;;26.43;8.17;;;6.80;99.90;;;;;;5034681;28;20547;-75
2024/02/01 05:19:21;;;;;;;22.57;7.50;;;6.80;99.90;;;;;;5034282;28;20454;-75
2024/02/01 05:21:52;;;;;;;27.63;7.97;;;6.80;99.90;;;;;;5035618;28;20470;-75
2024/02/01 05:24:21;;;;;;;28.97;7.93;;;6.80;99.90;;;;;;5034351;28;20458;-75
2024/02/01 05:26:50;;;;;;;25.83;7.13;;;6.70;99.90;;;;;;5034220;28;20449;-75
2024/02/01 05:29:19;;;;;;;27.43;7.53;;;6.70;99.90;;;;;;5035797;28;20440;-74
2024/02/01 05:31:50;;;;;;;22.87;7.27;;;6.70;99.90;;;;;;5035771;28;20465;-75
2024/02/01 05:34:19;;;;;;;21.70;7.00;;;6.70;99.90;;;;;;5035452;28;20512;-75
2024/02/01 05:36:48;;;;;;;27.43;7.77;;;6.70;99.90;;;;;;5035660;28;20940;-75
2024/02/01 05:39:25;;;;;;;23.30;7.10;;;6.60;99.90;;;;;;5034100;28;20438;-75
2024/02/01 05:41:53;;;;;;;21.10;7.00;;;6.60;99.90;;;;;;5034042;28;20482;-75
2024/02/01 05:44:23;;;;;;;31.07;8.00;;;6.60;99.90;;;;;;5035214;28;20816;-75
2024/02/01 05:46:54;;;;;;;21.70;6.50;;;6.50;99.90;;;;;;5034046;28;20496;-75
2024/02/01 05:49:23;;;;;;;20.03;5.80;;;6.50;99.90;;;;;;5033918;28;20958;-75
2024/02/01 05:51:53;;;;;;;30.17;7.23;;;6.50;99.90;;;;;;5035156;28;20434;-75
2024/02/01 05:54:22;;;;;;;22.37;7.10;;;6.50;99.90;;;;;;5033767;28;20806;-75
2024/02/01 05:56:51;;;;;;;26.23;7.20;;;6.40;99.90;;;;;;5035606;28;20474;-75
2024/02/01 05:59:20;;;;;;;21.50;7.30;;;6.40;99.90;;;;;;5035036;28;20444;-75
2024/02/01 06:01:49;;;;;;;23.60;7.43;;;6.40;99.90;;;;;;5035549;28;20451;-75
2024/02/01 06:04:17;;;;;;;25.60;7.47;;;6.30;99.90;;;;;;5032396;28;20465;-75
2024/02/01 06:06:47;;;;;;;20.37;5.90;;;6.30;99.90;;;;;;5033681;28;20454;-75
2024/02/01 06:09:16;;;;;;;26.80;6.27;;;6.30;99.90;;;;;;5033518;28;20494;-75
2024/02/01 06:11:48;;;;;;;20.47;6.50;;;6.30;99.90;;;;;;5033713;28;20456;-75
2024/02/01 06:14:17;;;;;;;17.67;6.20;;;6.20;99.90;;;;;;5033414;28;20470;-75
2024/02/01 06:16:46;;;;;;;26.83;6.03;;;6.20;99.90;;;;;;5033414;28;20868;-75
2024/02/01 06:19:14;;;;;;;18.77;5.83;;;6.20;99.90;;;;;;5034828;28;20865;-75
2024/02/01 06:21:43;;;;;;;22.50;7.13;;;6.20;99.90;;;;;;5034576;28;20437;-75
2024/02/01 06:24:11;;;;;;;21.13;5.60;;;6.20;99.90;;;;;;5034427;28;20914;-75
2024/02/01 06:26:41;;;;;;;24.80;6.23;;;6.10;99.90;;;;;;5034694;28;20461;-75
2024/02/01 06:29:11;;;;;;;20.27;6.00;;;6.10;99.90;;;;;;5034680;28;20474;-75
2024/02/01 06:31:40;;;;;;;21.87;5.47;;;6.10;99.90;;;;;;5033100;28;20453;-75
2024/02/01 06:34:11;;;;;;;26.60;6.40;;;6.10;99.90;;;;;;5034240;28;20497;-75
2024/02/01 06:36:41;;;;;;;18.70;6.57;;;6.00;99.90;;;;;;5033068;28;20526;-75
2024/02/01 06:39:16;;;;;;;27.87;6.47;;;6.00;99.90;;;;;;5034134;28;20450;-75
2024/02/01 06:41:51;;;;;;;16.90;6.20;;;6.00;99.90;;;;;;5034358;28;20477;-75
2024/02/01 06:44:25;;;;;;;18.07;6.47;;;6.00;99.90;;;;;;5032793;28;21009;-75
2024/02/01 06:47:11;;;;;;;24.60;8.00;;;5.90;99.90;;;;;;5032935;28;20439;-75
2024/02/01 06:50:08;;;;;;;26.23;7.90;;;5.90;99.90;;;;;;5032870;28;20447;-75
2024/02/01 06:52:39;;;;;;;20.67;6.83;;;5.90;99.90;;;;;;5033890;28;20438;-75
2024/02/01 06:58:13;;;;;;;18.80;5.63;;;5.80;99.90;;;;;;4998252;28;20448;-75
2024/02/01 07:00:53;;;;;;;21.90;6.60;;;5.80;99.90;;;;;;5034115;28;20520;-75
2024/02/01 07:03:44;;;;;;;22.60;6.40;;;5.70;99.90;;;;;;5033614;28;20534;-75
2024/02/01 07:06:27;;;;;;;24.53;6.10;;;5.70;99.90;;;;;;5032525;28;20447;-75
2024/02/01 07:09:16;;;;;;;36.30;8.67;;;5.70;99.90;;;;;;5032742;28;20451;-75
2024/02/01 07:11:58;;;;;;;18.80;6.20;;;5.70;99.90;;;;;;5033699;28;20448;-75
2024/02/01 07:14:36;;;;;;;21.53;5.97;;;5.70;99.90;;;;;;5032081;28;20976;-75
2024/02/01 07:17:27;;;;;;;22.27;6.57;;;5.60;99.90;;;;;;5033400;28;20750;-75
2024/02/01 07:20:03;;;;;;;25.57;6.50;;;5.60;99.90;;;;;;5032348;28;20919;-75
2024/02/01 07:22:39;;;;;;;23.37;6.73;;;5.60;99.90;;;;;;5032253;28;20439;-75
2024/02/01 07:25:23;;;;;;;27.50;6.67;;;5.60;99.90;;;;;;5032274;28;20442;-75
2024/02/01 07:58:21;;;;;;;27.00;6.57;;;5.40;99.90;;;;;;5031869;28;20451;-75
2024/02/01 08:00:53;;;;;;;26.00;5.90;;;5.40;99.90;;;;;;5031986;28;20501;-75
2024/02/01 08:03:42;;;;;;;25.50;7.43;;;5.40;99.90;;;;;;5033124;28;20478;-76
2024/02/01 08:08:58;;;;;;;21.57;6.67;;;5.40;99.90;;;;;;5033073;28;20434;-75
2024/02/01 08:11:26;;;;;;;30.33;8.10;;;5.40;99.90;;;;;;5033011;28;20437;-75
2024/02/01 08:13:54;;;;;;;21.03;7.00;;;5.40;99.90;;;;;;5031832;28;20506;-75
2024/02/01 08:16:22;;;;;;;21.63;6.30;;;5.40;99.90;;;;;;5031654;28;20451;-75
2024/02/01 08:18:51;;;;;;;23.87;5.90;;;5.40;99.90;;;;;;5033266;28;20481;-75
2024/02/01 08:21:23;;;;;;;22.47;7.80;;;5.40;99.90;;;;;;5033041;28;20441;-75
2024/02/01 08:23:54;;;;;;;28.00;7.00;;;5.50;99.90;;;;;;5031575;28;20507;-75
2024/02/01 08:26:24;;;;;;;29.50;6.83;;;5.40;99.90;;;;;;5031751;28;20543;-75
2024/02/01 08:28:52;;;;;;;21.40;7.10;;;5.50;99.90;;;;;;5035903;28;20925;-75
2024/02/01 08:31:20;;;;;;;29.23;7.40;;;5.50;99.90;;;;;;5036687;28;20435;-75
2024/02/01 08:33:49;;;;;;;21.90;7.10;;;5.50;99.90;;;;;;5035286;28;20460;-75
2024/02/01 08:36:20;;;;;;;29.20;7.10;;;5.50;99.90;;;;;;5036587;28;20435;-75
2024/02/01 08:38:50;;;;;;;22.10;6.73;;;5.50;99.90;;;;;;5036862;28;20481;-75
2024/02/01 08:41:18;;;;;;;25.23;7.70;;;5.60;99.90;;;;;;5035219;28;20509;-75
2024/02/01 08:43:47;;;;;;;23.93;8.03;;;5.60;99.90;;;;;;5036600;28;20527;-75
2024/02/01 08:46:22;;;;;;;20.10;6.63;;;5.60;99.90;;;;;;5035393;28;20442;-75
2024/02/01 08:48:50;;;;;;;21.20;6.33;;;5.60;99.90;;;;;;5035385;28;20444;-75
2024/02/01 08:51:19;;;;;;;20.33;7.17;;;5.70;99.90;;;;;;5035172;28;20470;-75
2024/02/01 08:53:50;;;;;;;28.03;7.13;;;5.70;99.90;;;;;;5036442;28;20527;-75
2024/02/01 08:56:20;;;;;;;25.40;7.30;;;5.70;99.90;;;;;;5034906;28;20971;-75
2024/02/01 08:58:48;;;;;;;24.27;7.20;;;5.70;99.90;;;;;;5034912;28;20500;-75
2024/02/01 09:01:25;;;;;;;23.27;7.13;;;5.80;99.90;;;;;;5034815;28;20450;-75
2024/02/01 09:03:53;;;;;;;24.23;7.97;;;5.80;99.90;;;;;;5034492;28;20532;-76
2024/02/01 09:06:22;;;;;;;22.63;7.90;;;5.90;99.90;;;;;;5035118;28;20450;-74
2024/02/01 09:08:52;;;;;;;19.60;7.37;;;5.90;99.90;;;;;;5034777;28;20453;-74
2024/02/01 09:11:22;;;;;;;32.83;8.83;;;5.90;99.90;;;;;;5034935;28;20429;-75
2024/02/01 09:13:51;;;;;;;24.23;7.43;;;5.90;99.90;;;;;;5035666;28;20455;-75
2024/02/01 09:16:30;;;;;;;27.27;7.53;;;6.00;99.90;;;;;;5034556;28;20950;-75
2024/02/01 09:19:00;;;;;;;26.50;7.43;;;6.00;99.90;;;;;;5034526;28;20514;-74
2024/02/01 09:21:28;;;;;;;36.63;9.13;;;6.00;99.90;;;;;;5034704;28;20457;-74
2024/02/01 09:23:58;;;;;;;21.50;7.80;;;6.10;99.90;;;;;;5034301;28;21012;-75
2024/02/01 09:26:27;;;;;;;23.50;7.50;;;6.10;99.90;;;;;;5036197;28;20802;-74
2024/02/01 09:28:55;;;;;;;25.63;7.67;;;6.10;99.90;;;;;;5034342;28;20448;-75
2024/02/01 09:31:23;;;;;;;21.63;6.80;;;6.20;99.90;;;;;;5034398;28;20494;-75
2024/02/01 09:33:51;;;;;;;22.43;6.90;;;6.20;99.90;;;;;;5034119;28;20469;-74
2024/02/01 09:36:20;;;;;;;26.07;7.87;;;6.20;99.90;;;;;;5034170;28;20452;-75
2024/02/01 09:38:48;;;;;;;26.90;8.20;;;6.20;99.90;;;;;;5035272;28;20853;-75
2024/02/01 09:41:20;;;;;;;27.13;7.73;;;6.20;99.90;;;;;;5035351;28;20472;-75
2024/02/01 09:43:49;;;;;;;27.10;8.60;;;6.30;99.90;;;;;;5034008;28;20508;-75
2024/02/01 09:46:18;;;;;;;22.67;8.37;;;6.30;99.90;;;;;;5033974;28;20977;-75
2024/02/01 09:48:49;;;;;;;27.40;8.30;;;6.30;99.90;;;;;;5035658;28;20445;-74
2024/02/01 09:51:18;;;;;;;33.57;8.77;;;6.40;99.90;;;;;;5034138;28;20541;-75
2024/02/01 09:53:48;;;;;;;26.50;7.43;;;6.40;99.90;;;;;;5033769;28;20470;-75
2024/02/01 09:56:18;;;;;;;21.80;7.00;;;6.50;99.90;;;;;;5035981;28;20447;-74
2024/02/01 09:58:47;;;;;;;21.30;6.83;;;6.50;99.90;;;;;;5036264;28;20502;-75
2024/02/01 10:01:15;;;;;;;27.83;8.53;;;6.50;99.90;;;;;;5034951;28;20975;-74
2024/02/01 10:03:44;;;;;;;21.93;7.63;;;6.50;99.90;;;;;;5034780;28;21264;-75
2024/02/01 10:06:13;;;;;;;28.03;8.47;;;6.60;99.90;;;;;;5035135;28;20458;-74
2024/02/01 10:08:42;;;;;;;25.97;8.53;;;6.60;99.90;;;;;;5035131;28;20774;-75
2024/02/01 10:11:19;;;;;;;26.07;7.73;;;6.60;99.90;;;;;;5033690;28;20529;-75
2024/02/01 10:13:49;;;;;;;30.07;7.77;;;6.60;99.90;;;;;;5047909;23;20492;-75
2024/02/01 10:16:21;;;;;;;23.77;8.17;;;6.70;99.90;;;;;;5033447;28;20453;-74
2024/02/01 10:18:53;;;;;;;27.77;8.27;;;6.70;99.90;;;;;;5033370;28;20449;-75
2024/02/01 10:21:23;;;;;;;25.13;7.53;;;6.70;99.90;;;;;;5033377;28;20442;-75
2024/02/01 10:24:07;;;;;;;24.03;8.23;;;6.70;99.90;;;;;;5033324;28;20470;-75
2024/02/01 10:26:37;;;;;;;22.07;7.17;;;6.80;99.90;;;;;;5034527;28;20837;-75
2024/02/01 10:29:07;;;;;;;25.20;9.93;;;6.80;99.90;;;;;;5033315;28;20495;-74
2024/02/01 10:31:41;;;;;;;24.97;7.90;;;6.80;99.90;;;;;;5033153;28;20533;-75
2024/02/01 10:34:13;;;;;;;30.53;8.67;;;6.90;99.90;;;;;;5033208;28;20574;-75
2024/02/01 10:36:43;;;;;;;22.47;7.60;;;6.90;99.90;;;;;;5033283;28;20531;-77
2024/02/01 10:39:19;;;;;;;23.70;7.40;;;6.90;99.90;;;;;;5032847;28;20442;-74
2024/02/01 10:41:53;;;;;;;24.13;7.43;;;7.00;99.90;;;;;;5032972;28;20441;-75
2024/02/01 10:44:32;;;;;;;22.83;7.50;;;7.00;99.90;;;;;;5034011;28;20797;-74
2024/02/01 10:47:04;;;;;;;24.33;7.90;;;7.00;99.90;;;;;;5033017;28;20839;-75
2024/02/01 10:49:38;;;;;;;18.83;7.00;;;7.10;99.90;;;;;;5033816;28;20434;-74
2024/02/01 10:52:07;;;;;;;22.50;7.50;;;7.10;99.90;;;;;;5034074;28;20432;-75
2024/02/01 10:54:36;;;;;;;24.73;8.27;;;7.10;99.90;;;;;;5032592;28;20517;-75
2024/02/01 10:57:05;;;;;;;27.00;8.13;;;7.20;99.90;;;;;;5033882;28;20465;-75
2024/02/01 10:59:38;;;;;;;25.33;8.10;;;7.20;99.90;;;;;;5033846;28;20446;-75
2024/02/01 11:02:07;;;;;;;28.00;8.50;;;7.20;99.90;;;;;;5034115;28;20542;-75
2024/02/01 11:04:36;;;;;;;26.57;8.30;;;7.20;99.90;;;;;;5032318;28;20517;-75
2024/02/01 11:07:05;;;;;;;31.20;9.77;;;7.30;99.90;;;;;;5032391;28;20450;-75
2024/02/01 11:09:35;;;;;;;25.80;7.67;;;7.30;99.90;;;;;;5033644;28;20443;-75
2024/02/01 11:12:13;;;;;;;21.03;7.60;;;7.30;99.90;;;;;;5032274;28;20521;-75
2024/02/01 11:14:43;;;;;;;23.93;6.93;;;7.40;99.90;;;;;;5032270;28;20924;-75
2024/02/01 11:17:19;;;;;;;23.13;7.37;;;7.40;99.90;;;;;;5032259;28;20848;-75
2024/02/01 11:19:53;;;;;;;25.57;7.20;;;7.50;99.90;;;;;;5032260;28;20437;-75
2024/02/01 11:22:22;;;;;;;21.17;8.73;;;7.50;99.90;;;;;;5032291;28;20449;-75
2024/02/01 11:24:50;;;;;;;22.53;9.13;;;7.50;99.90;;;;;;5031970;28;20496;-75
2024/02/01 11:27:20;;;;;;;29.53;9.10;;;7.50;99.90;;;;;;5033448;28;20466;-75
2024/02/01 11:29:55;;;;;;;22.93;7.40;;;7.50;99.90;;;;;;5032148;28;20546;-75
2024/02/01 11:32:32;;;;;;;18.03;7.50;;;7.50;99.90;;;;;;5032096;28;20533;-75
2024/02/01 11:35:05;;;;;;;27.10;7.90;;;7.60;99.90;;;;;;5033262;28;20572;-75
2024/02/01 11:37:34;;;;;;;24.27;7.23;;;7.60;99.90;;;;;;5033626;28;20505;-75
2024/02/01 11:40:02;;;;;;;22.57;6.67;;;7.60;99.90;;;;;;5033119;28;20442;-75
2024/02/01 11:42:31;;;;;;;25.67;7.80;;;7.60;99.90;;;;;;5033123;28;20438;-75
2024/02/01 11:45:03;;;;;;;20.60;7.63;;;7.60;99.90;;;;;;5031856;28;20486;-75
2024/02/01 11:47:34;;;;;;;18.33;6.50;;;7.60;99.90;;;;;;5032133;28;20438;-75
2024/02/01 11:50:03;;;;;;;17.40;6.60;;;7.70;99.90;;;;;;5033090;28;20923;-75
2024/02/01 11:52:36;;;;;;;18.93;6.13;;;7.70;99.90;;;;;;5032080;28;20472;-75
2024/02/01 11:55:07;;;;;;;20.97;7.13;;;7.70;99.90;;;;;;5031882;28;20473;-75
2024/02/01 11:57:47;;;;;;;22.40;7.70;;;7.80;99.90;;;;;;5033436;28;20431;-77
2024/02/01 12:00:20;;;;;;;19.77;6.40;;;7.80;99.90;;;;;;5031836;28;20449;-77
2024/02/01 12:03:06;;;;;;;16.20;6.40;;;7.80;99.90;;;;;;5035408;28;20553;-77
2024/02/01 12:05:34;;;;;;;19.80;7.40;;;7.90;99.90;;;;;;5035784;28;20475;-77
2024/02/01 12:08:06;;;;;;;22.73;7.17;;;7.90;99.90;;;;;;5035847;28;21021;-77
2024/02/01 12:10:35;;;;;;;18.53;6.00;;;7.90;99.90;;;;;;5037441;28;20512;-77
2024/02/01 12:13:04;;;;;;;19.20;6.90;;;7.90;99.90;;;;;;5035563;28;20474;-77
2024/02/01 12:15:36;;;;;;;23.53;7.37;;;8.00;99.90;;;;;;5035741;28;20489;-77
2024/02/01 12:18:10;;;;;;;24.90;6.63;;;8.00;99.90;;;;;;5036017;28;20478;-78
2024/02/01 12:20:41;;;;;;;16.47;6.63;;;8.10;99.90;;;;;;5036082;28;20458;-78
2024/02/01 12:23:11;;;;;;;21.70;6.33;;;8.10;99.90;;;;;;5036250;28;20987;-78
2024/02/01 12:25:44;;;;;;;18.77;5.63;;;8.10;99.90;;;;;;5037618;28;20482;-77
2024/02/01 12:28:13;;;;;;;18.13;6.10;;;8.10;99.90;;;;;;5036529;28;20496;-78
2024/02/01 12:30:44;;;;;;;21.90;5.67;;;8.10;99.90;;;;;;5036011;28;20583;-78
2024/02/01 12:33:13;;;;;;;21.33;6.77;;;8.10;99.90;;;;;;5036012;28;20474;-77
2024/02/01 12:35:43;;;;;;;20.17;6.23;;;8.10;99.90;;;;;;5036505;28;20496;-77
2024/02/01 12:38:14;;;;;;;18.73;6.10;;;8.10;99.90;;;;;;5035871;28;20450;-77
2024/02/01 12:40:44;;;;;;;18.87;6.10;;;8.10;99.90;;;;;;5037194;28;20872;-77
2024/02/01 12:43:13;;;;;;;23.60;7.17;;;8.20;99.90;;;;;;5035702;28;20565;-77
2024/02/01 12:45:46;;;;;;;20.27;5.50;;;8.20;99.90;;;;;;5035568;28;20474;-77
2024/02/01 12:48:15;;;;;;;17.63;6.53;;;8.20;99.90;;;;;;5036660;28;20421;-77
2024/02/01 12:50:44;;;;;;;22.37;7.10;;;8.20;99.90;;;;;;5035639;28;20932;-77
2024/02/01 12:53:13;;;;;;;16.83;7.13;;;8.30;99.90;;;;;;5037097;28;20484;-77
2024/02/01 12:55:41;;;;;;;23.60;6.93;;;8.30;99.90;;;;;;5036849;28;20517;-77
2024/02/01 12:58:10;;;;;;;19.83;6.33;;;8.30;99.90;;;;;;5035922;28;20447;-77
2024/02/01 13:00:38;;;;;;;21.27;6.40;;;8.30;99.90;;;;;;5035752;28;20501;-77
2024/02/01 13:03:08;;;;;;;19.97;6.10;;;8.30;99.90;;;;;;5035794;28;20817;-77
2024/02/01 13:05:36;;;;;;;18.60;6.27;;;8.30;99.90;;;;;;5035693;28;20458;-77
2024/02/01 13:08:06;;;;;;;19.80;6.13;;;8.30;99.90;;;;;;5036715;28;20822;-77
2024/02/01 13:10:38;;;;;;;20.70;7.60;;;8.30;99.90;;;;;;5035260;28;20439;-77
2024/02/01 13:13:08;;;;;;;21.00;6.73;;;8.30;99.90;;;;;;5034285;28;20537;-77
2024/02/01 13:15:36;;;;;;;18.53;5.93;;;8.30;99.90;;;;;;5036533;28;20787;-77
2024/02/01 13:18:11;;;;;;;19.90;5.77;;;8.30;99.90;;;;;;5036477;28;20437;-77
2024/02/01 13:20:42;;;;;;;16.90;5.73;;;8.30;99.90;;;;;;5036647;28;20768;-77
2024/02/01 13:23:10;;;;;;;19.87;6.20;;;8.40;99.90;;;;;;5036585;28;20462;-78
2024/02/01 13:25:41;;;;;;;15.87;5.10;;;8.40;99.90;;;;;;5034803;28;20964;-77
2024/02/01 13:28:11;;;;;;;19.37;6.63;;;8.40;99.90;;;;;;5036479;28;20801;-78
2024/02/01 13:30:43;;;;;;;16.37;4.93;;;8.50;99.90;;;;;;5035311;28;20486;-77
2024/02/01 13:33:12;;;;;;;19.77;5.47;;;8.60;99.90;;;;;;5036511;28;20455;-77
2024/02/01 13:35:42;;;;;;;17.50;5.60;;;8.60;99.90;;;;;;5034600;28;20458;-77